createdAt,value
2018-01-21T00:02:09.232Z,39.33
2018-01-21T00:04:35.842Z,38.97
2018-01-21T00:07:02.431Z,42.75
2018-01-21T00:09:29.014Z,50.28
2018-01-21T00:11:55.598Z,44.95
2018-01-21T00:14:22.204Z,45.45
2018-01-21T00:16:48.785Z,49.47
2018-01-21T00:19:15.368Z,56.05
2018-01-21T00:21:41.950Z,57.15
2018-01-21T00:24:08.531Z,53.10
2018-01-21T00:26:35.107Z,48.33
2018-01-21T00:29:02.032Z,56.83
2018-01-21T00:31:29.415Z,57.50
2018-01-21T00:33:56.002Z,55.25
2018-01-21T00:36:22.570Z,51.72
2018-01-21T00:38:49.382Z,54.28
2018-01-21T00:41:15.966Z,51.75
2018-01-21T00:43:42.551Z,44.40
2018-01-21T00:46:09.139Z,51.95
2018-01-21T00:48:35.719Z,45.90
2018-01-21T00:51:02.299Z,42.75
2018-01-21T00:53:28.882Z,41.10
2018-01-21T00:55:55.464Z,44.05
2018-01-21T00:58:22.366Z,40.83
2018-01-21T01:00:48.955Z,43.35
2018-01-21T01:03:15.539Z,48.17
2018-01-21T01:05:42.122Z,41.95
2018-01-21T01:08:08.710Z,50.20
2018-01-21T01:10:35.294Z,44.88
2018-01-21T01:13:01.909Z,43.75
2018-01-21T01:15:28.494Z,43.75
2018-01-21T01:17:55.075Z,51.75
2018-01-21T01:20:21.686Z,42.00
2018-01-21T01:22:48.270Z,44.95
2018-01-21T01:25:14.854Z,45.83
2018-01-21T01:27:41.442Z,45.35
2018-01-21T01:30:08.023Z,50.20
2018-01-21T01:32:34.610Z,44.30
2018-01-21T01:35:01.219Z,40.60
2018-01-21T01:37:27.802Z,47.42
2018-01-21T01:39:54.386Z,46.50
2018-01-21T01:42:21.004Z,45.63
2018-01-21T01:44:47.572Z,44.92
2018-01-21T01:47:14.157Z,45.67
2018-01-21T01:49:40.766Z,49.08
2018-01-21T01:52:07.355Z,46.42
2018-01-21T01:54:33.941Z,48.30
2018-01-21T01:57:00.526Z,48.25
2018-01-21T01:59:27.119Z,46.00
2018-01-21T02:01:53.702Z,42.53
2018-01-21T02:04:20.297Z,46.97
2018-01-21T02:06:46.888Z,42.50
2018-01-21T02:09:13.458Z,48.20
2018-01-21T02:11:40.039Z,44.22
2018-01-21T02:14:06.730Z,39.63
2018-01-21T02:16:33.306Z,45.63
2018-01-21T02:18:59.886Z,38.90
2018-01-21T02:21:26.471Z,38.03
2018-01-21T02:23:53.066Z,46.95
2018-01-21T02:26:19.650Z,48.03
2018-01-21T02:28:46.232Z,44.50
2018-01-21T02:31:12.840Z,47.55
2018-01-21T02:33:39.414Z,51.65
2018-01-21T02:36:05.990Z,44.25
2018-01-21T02:38:32.587Z,44.17
2018-01-21T02:40:59.167Z,36.70
2018-01-21T02:43:25.748Z,40.95
2018-01-21T02:45:52.330Z,37.70
2018-01-21T02:48:18.916Z,42.55
2018-01-21T02:50:45.498Z,41.78
2018-01-21T02:53:12.075Z,36.58
2018-01-21T02:55:38.660Z,41.13
2018-01-21T02:58:05.474Z,37.60
2018-01-21T03:00:32.054Z,38.85
2018-01-21T03:02:58.630Z,38.95
2018-01-21T03:05:25.373Z,39.90
2018-01-21T03:07:51.902Z,43.22
2018-01-21T03:10:18.484Z,42.47
2018-01-21T03:12:45.089Z,40.75
2018-01-21T03:15:11.667Z,41.92
2018-01-21T03:17:38.240Z,59.50
2018-01-21T03:20:05.205Z,51.72
2018-01-21T03:22:31.774Z,39.85
2018-01-21T03:24:58.363Z,38.17
2018-01-21T03:27:24.955Z,42.47
2018-01-21T03:29:51.543Z,40.78
2018-01-21T03:32:18.115Z,33.22
2018-01-21T03:34:44.730Z,35.33
2018-01-21T03:37:11.309Z,39.15
2018-01-21T03:42:11.055Z,37.67
2018-01-21T03:44:37.637Z,35.58
2018-01-21T03:47:04.217Z,33.97
2018-01-21T03:49:31.183Z,32.95
2018-01-21T03:51:57.762Z,36.90
2018-01-21T03:54:24.345Z,33.53
2018-01-21T03:56:50.938Z,33.58
2018-01-21T03:59:17.514Z,34.70
2018-01-21T04:01:44.115Z,36.25
2018-01-21T04:04:10.708Z,35.20
2018-01-21T04:06:37.287Z,34.55
2018-01-21T04:09:03.875Z,34.95
2018-01-21T04:11:30.459Z,35.58
2018-01-21T04:13:57.042Z,33.47
2018-01-21T04:16:23.635Z,39.75
2018-01-21T04:18:50.210Z,39.22
2018-01-21T04:21:16.802Z,34.13
2018-01-21T04:23:43.387Z,33.10
2018-01-21T04:26:09.970Z,30.90
2018-01-21T04:28:36.567Z,180.02
2018-01-21T04:31:03.158Z,177.65
2018-01-21T04:33:29.751Z,159.68
2018-01-21T04:35:56.367Z,154.85
2018-01-21T04:38:22.950Z,55.10
2018-01-21T04:40:49.536Z,42.78
2018-01-21T04:43:16.120Z,41.35
2018-01-21T04:45:42.700Z,37.90
2018-01-21T04:48:09.299Z,35.08
2018-01-21T04:50:35.879Z,41.47
2018-01-21T04:53:02.468Z,38.05
2018-01-21T04:55:29.062Z,49.38
2018-01-21T04:57:55.655Z,54.08
2018-01-21T05:00:22.238Z,58.28
2018-01-21T05:02:48.822Z,64.32
2018-01-21T05:05:15.399Z,84.68
2018-01-21T05:07:41.999Z,100.70
2018-01-21T05:10:08.580Z,99.62
2018-01-21T05:12:35.162Z,105.15
2018-01-21T05:15:01.754Z,76.97
2018-01-21T05:17:28.338Z,61.10
2018-01-21T05:19:54.919Z,80.68
2018-01-21T05:22:21.502Z,90.20
2018-01-21T05:24:48.089Z,85.82
2018-01-21T05:27:14.672Z,127.12
2018-01-21T05:29:41.410Z,79.03
2018-01-21T05:32:07.991Z,74.53
2018-01-21T05:34:34.577Z,65.90
2018-01-21T05:37:01.176Z,94.37
2018-01-21T05:39:27.752Z,58.90
2018-01-21T05:41:54.331Z,45.78
2018-01-21T05:44:21.152Z,52.40
2018-01-21T05:46:47.710Z,48.92
2018-01-21T05:49:14.296Z,117.10
2018-01-21T05:51:40.883Z,74.12
2018-01-21T05:54:07.489Z,72.47
2018-01-21T05:56:34.075Z,56.00
2018-01-21T05:59:01.358Z,60.42
2018-01-21T06:01:27.951Z,80.82
2018-01-21T06:03:54.527Z,54.95
2018-01-21T06:06:21.110Z,62.35
2018-01-21T06:08:48.007Z,65.37
2018-01-21T06:11:14.590Z,57.33
2018-01-21T06:13:41.166Z,50.75
2018-01-21T06:16:07.747Z,53.63
2018-01-21T06:18:34.338Z,51.47
2018-01-21T06:21:00.931Z,85.18
2018-01-21T06:23:27.506Z,47.55
2018-01-21T06:25:54.091Z,36.90
2018-01-21T06:28:20.683Z,64.85
2018-01-21T06:30:47.263Z,44.15
2018-01-21T06:33:13.847Z,43.20
2018-01-21T06:35:40.438Z,50.45
2018-01-21T06:38:07.006Z,45.28
2018-01-21T06:40:33.707Z,55.42
2018-01-21T06:43:00.287Z,49.67
2018-01-21T06:45:26.862Z,50.83
2018-01-21T06:47:53.463Z,38.00
2018-01-21T06:50:20.042Z,34.92
2018-01-21T06:52:46.618Z,55.60
2018-01-21T06:55:13.475Z,56.95
2018-01-21T06:57:40.050Z,33.25
2018-01-21T07:00:06.634Z,41.00
2018-01-21T07:02:33.226Z,44.45
2018-01-21T07:04:59.927Z,32.95
2018-01-21T07:07:26.503Z,40.63
2018-01-21T07:09:53.078Z,29.95
2018-01-21T07:12:19.671Z,31.92
2018-01-21T07:14:46.242Z,29.70
2018-01-21T07:17:12.819Z,38.40
2018-01-21T07:19:39.734Z,38.80
2018-01-21T07:22:06.305Z,36.25
2018-01-21T07:24:32.879Z,38.05
2018-01-21T07:26:59.478Z,41.90
2018-01-21T07:29:26.063Z,31.83
2018-01-21T07:31:52.644Z,37.10
2018-01-21T07:34:19.447Z,38.92
2018-01-21T07:36:46.023Z,33.38
2018-01-21T07:39:12.602Z,42.53
2018-01-21T07:41:39.559Z,40.92
2018-01-21T07:44:06.138Z,55.15
2018-01-21T07:46:32.722Z,30.58
2018-01-21T07:48:59.338Z,29.12
2018-01-21T07:51:25.919Z,67.82
2018-01-21T07:53:52.507Z,44.20
2018-01-21T07:56:19.274Z,53.58
2018-01-21T07:58:45.851Z,34.72
2018-01-21T08:01:12.427Z,45.72
2018-01-21T08:03:39.022Z,50.05
2018-01-21T08:06:05.635Z,71.22
2018-01-21T08:08:32.216Z,45.85
2018-01-21T08:10:58.798Z,59.45
2018-01-21T08:13:25.382Z,43.58
2018-01-21T08:15:51.982Z,58.10
2018-01-21T08:18:18.586Z,27.37
2018-01-21T08:20:45.163Z,49.78
2018-01-21T08:23:11.844Z,30.10
2018-01-21T08:25:38.421Z,34.17
2018-01-21T08:28:04.995Z,69.20
2018-01-21T08:30:31.578Z,58.33
2018-01-21T08:32:58.192Z,43.42
2018-01-21T08:35:30.479Z,71.05
2018-01-21T08:38:03.042Z,75.60
2018-01-21T08:40:35.374Z,78.28
2018-01-21T08:43:01.944Z,64.07
2018-01-21T08:45:28.547Z,29.85
2018-01-21T08:47:55.125Z,96.50
2018-01-21T08:50:21.707Z,49.15
2018-01-21T08:52:48.299Z,32.50
2018-01-21T08:55:14.883Z,22.65
2018-01-21T08:57:41.454Z,30.00
2018-01-21T09:00:08.041Z,41.53
2018-01-21T09:02:34.623Z,46.00
2018-01-21T09:05:01.198Z,52.72
2018-01-21T09:07:27.775Z,40.08
2018-01-21T09:09:54.370Z,61.90
2018-01-21T09:12:20.958Z,72.40
2018-01-21T09:14:47.542Z,124.70
2018-01-21T09:17:14.130Z,75.90
2018-01-21T09:19:40.715Z,72.65
2018-01-21T09:22:07.308Z,54.42
2018-01-21T09:24:33.924Z,78.45
2018-01-21T09:27:00.510Z,35.05
2018-01-21T09:29:27.095Z,40.67
2018-01-21T09:31:53.681Z,48.70
2018-01-21T09:34:20.259Z,29.80
2018-01-21T09:36:46.839Z,49.15
2018-01-21T09:39:13.440Z,41.80
2018-01-21T09:41:40.027Z,49.20
2018-01-21T09:44:06.614Z,32.42
2018-01-21T09:46:33.228Z,31.17
2018-01-21T09:48:59.802Z,28.67
2018-01-21T09:51:26.385Z,44.85
2018-01-21T09:53:53.271Z,57.17
2018-01-21T09:56:19.865Z,25.67
2018-01-21T09:58:46.452Z,56.55
2018-01-21T10:01:13.022Z,24.52
2018-01-21T10:03:39.610Z,29.73
2018-01-21T10:06:06.203Z,26.20
2018-01-21T10:08:32.861Z,40.03
2018-01-21T10:10:59.442Z,44.58
2018-01-21T10:13:26.032Z,44.63
2018-01-21T10:15:52.635Z,33.10
2018-01-21T10:18:19.231Z,30.50
2018-01-21T10:20:45.806Z,52.62
2018-01-21T10:23:12.390Z,31.25
2018-01-21T10:25:38.974Z,41.60
2018-01-21T10:28:05.562Z,75.12
2018-01-21T10:30:32.147Z,54.38
2018-01-21T10:32:58.738Z,40.15
2018-01-21T10:35:25.880Z,55.60
2018-01-21T10:37:52.471Z,176.37
2018-01-21T10:40:19.067Z,40.40
2018-01-21T10:42:45.700Z,148.13
2018-01-21T10:45:12.518Z,87.37
2018-01-21T10:47:39.104Z,42.33
2018-01-21T10:50:05.689Z,55.53
2018-01-21T10:52:32.287Z,42.83
2018-01-21T10:54:58.863Z,39.80
2018-01-21T10:57:25.454Z,36.43
2018-01-21T10:59:52.050Z,65.43
2018-01-21T11:02:18.635Z,45.20
2018-01-21T11:04:45.214Z,57.60
2018-01-21T11:07:11.791Z,39.17
2018-01-21T11:09:38.687Z,74.57
2018-01-21T11:12:05.264Z,54.27
2018-01-21T11:14:31.841Z,43.17
2018-01-21T11:16:58.494Z,40.33
2018-01-21T11:19:25.032Z,48.87
2018-01-21T11:21:51.610Z,44.37
2018-01-21T11:24:18.201Z,48.77
2018-01-21T11:26:44.775Z,32.03
2018-01-21T11:29:11.368Z,58.27
2018-01-21T11:31:39.568Z,50.83
2018-01-21T11:34:06.143Z,37.87
2018-01-21T11:36:32.759Z,29.63
2018-01-21T11:38:59.319Z,47.30
2018-01-21T11:41:25.916Z,56.97
2018-01-21T11:43:52.683Z,33.77
2018-01-21T11:46:19.265Z,66.77
2018-01-21T11:48:45.844Z,36.50
2018-01-21T11:51:12.728Z,55.83
2018-01-21T11:53:39.314Z,31.93
2018-01-21T11:56:05.898Z,39.73
2018-01-21T11:58:32.515Z,29.63
2018-01-21T12:00:59.095Z,50.17
2018-01-21T12:03:25.676Z,28.90
2018-01-21T12:05:52.261Z,52.90
2018-01-21T12:08:18.831Z,37.30
2018-01-21T12:10:45.413Z,42.00
2018-01-21T12:13:11.982Z,57.37
2018-01-21T12:15:38.582Z,121.33
2018-01-21T12:18:05.162Z,59.20
2018-01-21T12:20:31.743Z,61.60
2018-01-21T12:22:58.579Z,42.20
2018-01-21T12:25:25.188Z,61.57
2018-01-21T12:27:51.763Z,63.53
2018-01-21T12:30:18.362Z,48.30
2018-01-21T12:32:44.930Z,49.67
2018-01-21T12:35:11.530Z,65.28
2018-01-21T12:37:38.136Z,32.93
2018-01-21T12:40:04.722Z,36.05
2018-01-21T12:42:31.306Z,61.90
2018-01-21T12:44:57.916Z,89.53
2018-01-21T12:47:24.501Z,67.27
2018-01-21T12:49:51.083Z,90.97
2018-01-21T12:52:18.118Z,81.67
2018-01-21T12:54:44.700Z,77.77
2018-01-21T12:57:11.266Z,72.37
2018-01-21T12:59:37.988Z,82.00
2018-01-21T13:02:04.556Z,59.97
2018-01-21T13:04:31.134Z,62.10
2018-01-21T13:06:57.742Z,63.93
2018-01-21T13:09:24.481Z,38.10
2018-01-21T13:11:51.039Z,58.87
2018-01-21T13:14:17.620Z,48.03
2018-01-21T13:16:44.199Z,63.03
2018-01-21T13:19:10.793Z,56.23
2018-01-21T13:21:37.372Z,106.40
2018-01-21T13:24:03.959Z,67.90
2018-01-21T13:26:30.653Z,43.65
2018-01-21T13:28:57.239Z,79.28
2018-01-21T13:31:23.823Z,90.57
2018-01-21T13:33:50.714Z,70.37
2018-01-21T13:36:17.306Z,81.75
2018-01-21T13:38:43.896Z,53.58
2018-01-21T13:41:10.483Z,43.63
2018-01-21T13:43:37.075Z,108.03
2018-01-21T13:46:03.703Z,66.05
2018-01-21T13:48:30.299Z,106.90
2018-01-21T13:50:56.883Z,47.67
2018-01-21T13:53:23.478Z,144.02
2018-01-21T13:55:50.063Z,85.10
2018-01-21T13:58:16.676Z,58.30
2018-01-21T14:00:43.267Z,60.92
2018-01-21T14:03:09.848Z,81.07
2018-01-21T14:05:36.563Z,56.17
2018-01-21T14:08:03.151Z,97.00
2018-01-21T14:10:29.739Z,113.28
2018-01-21T14:12:56.340Z,110.72
2018-01-21T14:15:22.919Z,70.15
2018-01-21T14:17:49.528Z,80.38
2018-01-21T14:20:16.098Z,80.72
2018-01-21T14:22:42.692Z,63.55
2018-01-21T14:25:09.290Z,81.18
2018-01-21T14:27:35.883Z,71.62
2018-01-21T14:30:02.462Z,94.15
2018-01-21T14:32:29.083Z,68.05
2018-01-21T14:34:55.671Z,116.00
2018-01-21T14:37:22.260Z,66.90
2018-01-21T14:39:48.866Z,71.45
2018-01-21T14:42:15.480Z,79.12
2018-01-21T14:44:42.059Z,72.75
2018-01-21T14:47:08.659Z,147.02
2018-01-21T14:49:35.608Z,106.55
2018-01-21T14:52:02.183Z,86.50
2018-01-21T14:54:28.776Z,78.28
2018-01-21T14:56:56.454Z,71.95
2018-01-21T14:59:23.044Z,82.57
2018-01-21T15:01:49.648Z,76.47
2018-01-21T15:04:16.571Z,73.90
2018-01-21T15:06:43.175Z,141.73
2018-01-21T15:09:09.775Z,69.55
2018-01-21T15:11:36.495Z,93.37
2018-01-21T15:14:03.098Z,78.95
2018-01-21T15:16:29.709Z,204.00
2018-01-21T15:18:56.324Z,165.12
2018-01-21T15:21:22.917Z,113.95
2018-01-21T15:23:49.489Z,93.80
2018-01-21T15:26:16.126Z,99.25
2018-01-21T15:28:42.661Z,67.57
2018-01-21T15:31:09.246Z,141.27
2018-01-21T15:33:35.857Z,112.57
2018-01-21T15:36:02.434Z,125.07
2018-01-21T15:38:29.019Z,86.85
2018-01-21T15:40:55.630Z,118.13
2018-01-21T15:43:22.209Z,151.23
2018-01-21T15:45:48.795Z,120.57
2018-01-21T15:48:15.566Z,123.80
2018-01-21T15:50:42.135Z,146.82
2018-01-21T15:53:08.733Z,141.60
2018-01-21T15:55:35.337Z,134.25
2018-01-21T15:58:01.958Z,91.85
2018-01-21T16:00:28.558Z,87.07
2018-01-21T16:02:55.524Z,128.23
2018-01-21T16:05:22.126Z,126.43
2018-01-21T16:07:48.727Z,164.35
2018-01-21T16:10:15.388Z,70.32
2018-01-21T16:12:42.058Z,120.00
2018-01-21T16:15:08.631Z,93.60
2018-01-21T16:17:35.236Z,106.28
2018-01-21T16:20:01.812Z,87.40
2018-01-21T16:22:28.402Z,86.22
2018-01-21T16:24:55.125Z,108.78
2018-01-21T16:27:21.710Z,133.12
2018-01-21T16:29:55.865Z,100.18
2018-01-21T16:32:22.475Z,101.65
2018-01-21T16:34:49.076Z,76.05
2018-01-21T16:37:21.686Z,85.45
2018-01-21T16:39:48.260Z,87.07
2018-01-21T16:42:14.845Z,59.85
2018-01-21T16:44:41.451Z,90.35
2018-01-21T16:47:08.036Z,88.65
2018-01-21T16:49:34.618Z,70.55
2018-01-21T16:52:01.521Z,73.20
2018-01-21T16:54:28.118Z,78.55
2018-01-21T16:56:54.707Z,105.35
2018-01-21T16:59:21.292Z,85.00
2018-01-21T17:01:47.879Z,101.32
2018-01-21T17:04:14.714Z,73.75
2018-01-21T17:06:41.311Z,60.40
2018-01-21T17:09:07.913Z,104.38
2018-01-21T17:11:34.531Z,86.15
2018-01-21T17:14:01.223Z,75.78
2018-01-21T17:16:27.903Z,82.32
2018-01-21T17:18:54.491Z,75.30
2018-01-21T17:21:21.074Z,81.20
2018-01-21T17:23:47.655Z,90.32
2018-01-21T17:26:22.371Z,69.18
2018-01-21T17:28:49.782Z,79.45
2018-01-21T17:31:16.425Z,70.32
2018-01-21T17:33:44.017Z,78.90
2018-01-21T17:36:10.612Z,70.32
2018-01-21T17:38:37.190Z,50.88
2018-01-21T17:41:03.782Z,76.22
2018-01-21T17:43:30.404Z,90.18
2018-01-21T17:45:56.986Z,70.45
2018-01-21T17:48:23.580Z,73.53
2018-01-21T17:50:50.185Z,59.33
2018-01-21T17:53:16.802Z,53.33
2018-01-21T17:55:43.388Z,59.83
2018-01-21T17:58:10.235Z,60.35
2018-01-21T18:00:36.817Z,64.95
2018-01-21T18:03:03.411Z,52.40
2018-01-21T18:05:30.096Z,57.78
2018-01-21T18:07:56.670Z,73.60
2018-01-21T18:10:23.252Z,61.80
2018-01-21T18:12:49.855Z,65.03
2018-01-21T18:15:16.433Z,52.92
2018-01-21T18:17:43.050Z,49.13
2018-01-21T18:20:09.787Z,44.60
2018-01-21T18:22:36.371Z,51.50
2018-01-21T18:25:02.954Z,54.10
2018-01-21T18:27:29.543Z,49.22
2018-01-21T18:29:56.150Z,42.60
2018-01-21T18:32:22.771Z,49.42
2018-01-21T18:34:49.355Z,47.50
2018-01-21T18:37:16.037Z,46.05
2018-01-21T18:39:42.598Z,45.10
2018-01-21T18:42:09.199Z,62.10
2018-01-21T18:44:35.786Z,41.20
2018-01-21T18:47:02.383Z,45.00
2018-01-21T18:49:28.992Z,42.22
2018-01-21T18:51:55.576Z,45.42
2018-01-21T18:54:26.794Z,47.08
2018-01-21T18:56:53.387Z,40.92
2018-01-21T18:59:23.930Z,37.40
2018-01-21T19:01:50.557Z,38.38
2018-01-21T19:04:17.116Z,36.30
2018-01-21T19:06:43.708Z,43.53
2018-01-21T19:09:11.424Z,38.13
2018-01-21T19:11:37.997Z,34.42
2018-01-21T19:14:05.727Z,43.30
2018-01-21T19:16:32.318Z,35.53
2018-01-21T19:18:58.915Z,45.92
2018-01-21T19:21:25.490Z,36.25
2018-01-21T19:23:52.067Z,37.45
2018-01-21T19:26:18.680Z,38.88
2018-01-21T19:28:45.268Z,32.83
2018-01-21T19:31:12.463Z,41.45
2018-01-21T19:33:39.063Z,36.50
2018-01-21T19:36:05.653Z,34.65
2018-01-21T19:38:35.795Z,29.95
2018-01-21T19:41:05.035Z,31.50
2018-01-21T19:43:33.422Z,38.15
2018-01-21T19:46:00.192Z,37.83
2018-01-21T19:48:27.050Z,34.53
2018-01-21T19:50:53.610Z,36.83
2018-01-21T19:53:20.202Z,38.67
2018-01-21T19:55:46.798Z,37.35
2018-01-21T19:58:13.500Z,34.53
2018-01-21T20:00:40.071Z,36.70
2018-01-21T20:03:33.327Z,36.88
2018-01-21T20:05:59.928Z,37.95
2018-01-21T20:08:26.514Z,45.35
2018-01-21T20:10:53.154Z,42.58
2018-01-21T20:13:19.759Z,51.55
2018-01-21T20:15:46.540Z,45.28
2018-01-21T20:18:13.200Z,35.55
2018-01-21T20:20:39.783Z,39.05
2018-01-21T20:23:06.387Z,35.25
2018-01-21T20:25:32.983Z,39.90
2018-01-21T20:27:59.674Z,42.00
2018-01-21T20:30:26.249Z,38.08
2018-01-21T20:32:52.841Z,47.25
2018-01-21T20:35:19.456Z,37.28
2018-01-21T20:37:46.178Z,44.75
2018-01-21T20:40:12.941Z,44.15
2018-01-21T20:42:39.536Z,41.08
2018-01-21T20:45:06.116Z,50.28
2018-01-21T20:47:32.690Z,38.22
2018-01-21T20:49:59.359Z,45.30
2018-01-21T20:52:32.322Z,43.03
2018-01-21T20:54:58.922Z,44.95
2018-01-21T20:57:25.500Z,46.63
2018-01-21T20:59:53.252Z,40.20
2018-01-21T21:02:19.907Z,49.25
2018-01-21T21:04:46.512Z,44.42
2018-01-21T21:07:13.137Z,41.08
2018-01-21T21:09:39.707Z,37.63
2018-01-21T21:12:06.317Z,45.22
2018-01-21T21:14:32.895Z,51.05
2018-01-21T21:16:59.483Z,38.47
2018-01-21T21:19:26.079Z,53.05
2018-01-21T21:21:52.679Z,46.15
2018-01-21T21:24:19.249Z,55.92
2018-01-21T21:26:45.831Z,44.15
2018-01-21T21:29:12.435Z,55.45
2018-01-21T21:31:39.015Z,55.88
2018-01-21T21:34:05.596Z,48.22
2018-01-21T21:36:32.202Z,61.08
2018-01-21T21:38:58.779Z,53.28
2018-01-21T21:41:25.378Z,52.20
2018-01-21T21:43:51.984Z,46.92
2018-01-21T21:46:19.990Z,49.67
2018-01-21T21:48:46.572Z,56.42
2018-01-21T21:51:13.270Z,47.20
2018-01-21T21:53:39.883Z,47.25
2018-01-21T21:56:06.458Z,46.33
2018-01-21T21:58:33.166Z,43.83
2018-01-21T22:00:59.735Z,52.65
2018-01-21T22:03:26.318Z,48.33
2018-01-21T22:05:52.929Z,49.80
2018-01-21T22:08:19.512Z,38.22
2018-01-21T22:10:46.079Z,41.35
2018-01-21T22:13:12.676Z,44.10
2018-01-21T22:15:39.259Z,41.53
2018-01-21T22:18:06.062Z,46.83
2018-01-21T22:20:32.644Z,40.10
2018-01-21T22:22:59.238Z,47.60
2018-01-21T22:25:25.848Z,43.67
2018-01-21T22:27:52.422Z,44.30
2018-01-21T22:30:19.004Z,51.05
2018-01-21T22:32:45.587Z,43.28
2018-01-21T22:35:12.223Z,48.40
2018-01-21T22:37:38.839Z,42.35
2018-01-21T22:40:05.410Z,55.92
2018-01-21T22:42:31.997Z,42.20
2018-01-21T22:44:58.862Z,46.65
2018-01-21T22:47:25.439Z,50.15
2018-01-21T22:49:52.010Z,43.55
2018-01-21T22:52:18.694Z,48.55
2018-01-21T22:54:45.269Z,48.22
2018-01-21T22:57:11.856Z,43.70
2018-01-21T22:59:38.460Z,46.97
2018-01-21T23:02:05.043Z,54.67
2018-01-21T23:04:31.616Z,41.08
2018-01-21T23:06:58.223Z,44.75
2018-01-21T23:09:24.802Z,45.10
2018-01-21T23:11:51.383Z,41.88
2018-01-21T23:14:17.955Z,51.55
2018-01-21T23:16:44.533Z,46.67
2018-01-21T23:19:11.121Z,48.08
2018-01-21T23:21:37.701Z,45.95
2018-01-21T23:24:04.287Z,41.67
2018-01-21T23:26:30.863Z,51.67
2018-01-21T23:28:57.443Z,47.65
2018-01-21T23:31:24.026Z,47.05
2018-01-21T23:33:50.602Z,49.97
2018-01-21T23:36:17.183Z,49.33
2018-01-21T23:38:43.768Z,44.90
2018-01-21T23:41:10.355Z,44.75
2018-01-21T23:43:36.934Z,41.58
2018-01-21T23:46:03.527Z,41.50
2018-01-21T23:48:30.111Z,39.28
2018-01-21T23:50:56.686Z,45.12
2018-01-21T23:53:23.274Z,41.47
2018-01-21T23:55:49.846Z,49.92
2018-01-21T23:58:16.446Z,38.58
